Aérodrome :
LOGIN :

S'inscrire | Disclaimer

   EN    FR    IT 

 










Légende :    VFR   VFR Marginal   IFR   IFR Intensif   IFR Très Intensif
Visi : 
Plafond : 
>= 8 km
>= 3000ft
5 à 8 km
1000 à 3000 ft
1500m à 5 km
500 à 1000 ft
800 à 1500m
200 à 500 ft
< 800m
< 200 ft
Symboles :   Orages  Brouillard  Fortes neiges  Fortes précipitations  Vent > 20 kt
SIGMETs :   Divers  Orages  Givrage  Turbulence  Onde Orograph.  Cendres Volcan.







- Altitude de l'aérodrome : 31 ft
- Code IATA : INV
- Voir les cartes d'approche


EGPE - Inverness

DERNIER METAR :
  • 171450Z 21009KT 170V240 9999 FEW020 SCT038 17/14 Q1004

METARs EXPIRÉS :
  • 171420Z 21014G24KT 9999 -RA FEW020 BKN040 18/14 Q1004
  • 171350Z 20010KT 9999 -RA FEW015 BKN042 18/14 Q1005
  • 171320Z 21013KT 9999 -RA FEW015 BKN044 18/13 Q1005
  • 171250Z 23007KT 190V260 9999 -RA FEW014 BKN040 18/15 Q1005
  • 171220Z 23005KT 190V270 9999 -RA FEW014 SCT032 18/15 Q1005

TAF TAF EGPE
Valide du 17 à 15h jusqu'au 18 à 00h UTC


171402Z 1715/1724 21009KT 9999 FEW040
TEMPO 1715/1720 6000 RA
PROB30
TEMPO 1718/1720 BKN014
ATIS : +44 1667 464 255
Pas de NOTAMs connus pour ce terrain.



MET'MAP, la Météo Aéronautique d'un coup d'oeil ! - Copyright ORBIFLY Décembre 2007 - Disclaimer

ORBIFLY MET'MAP TEAM :

Programmation & Développement : Alexandra Zaïnal
Conception & Développement : Baudouin d'Aumeries
Co-Programmation & Développement : Marc-Olivier Méhu
Soutien technique & logistique : Manuel Goepfert

Contact : metmap@orbifly.com




SOURCES & CREDITS :

   NOAA